Time;durP1;ratioP1;P1;durP2;ratioP2;P2;SDS_P1;SDS_P2;PMS_P1;PMS_P2;Temp;Humidity;BMP_temperature;BMP_pressure;BME280_temperature;BME280_humidity;BME280_pressure;Samples;Min_cycle;Max_cycle;Signal;HPM_P1;HPM_P2
2022/06/17 00:00:17;;;;;;;2.58;2.38;;;20.50;66.90;;;;;;4972731;28;20270;-91
2022/06/17 00:02:44;;;;;;;2.35;2.15;;;20.50;66.80;;;;;;4989435;28;20626;-90
2022/06/17 00:05:11;;;;;;;2.60;2.40;;;20.50;66.70;;;;;;4988528;28;20198;-89
2022/06/17 00:07:38;;;;;;;2.28;2.08;;;20.60;66.80;;;;;;4988219;28;20159;-90
2022/06/17 00:10:16;;;;;;;3.20;2.30;;;20.50;66.60;;;;;;4989002;28;20250;-90
2022/06/17 00:12:41;;;;;;;2.45;2.25;;;20.50;66.60;;;;;;4989191;28;20163;-90
2022/06/17 00:15:12;;;;;;;2.50;2.30;;;20.50;66.60;;;;;;4988601;28;20171;-91
2022/06/17 00:17:44;;;;;;;2.47;2.28;;;20.50;66.70;;;;;;4988788;28;20191;-90
2022/06/17 00:20:13;;;;;;;2.40;2.20;;;20.50;66.70;;;;;;4989314;28;20167;-90
2022/06/17 00:22:40;;;;;;;2.40;2.20;;;20.50;66.70;;;;;;4988878;28;20213;-90
2022/06/17 00:25:29;;;;;;;2.13;1.98;;;20.50;66.60;;;;;;4988979;28;20191;-90
2022/06/17 00:27:55;;;;;;;2.60;2.40;;;20.50;66.70;;;;;;5004284;28;20155;-91
2022/06/17 00:30:23;;;;;;;2.45;2.25;;;20.50;66.70;;;;;;4987440;28;20223;-90
2022/06/17 00:32:52;;;;;;;2.67;2.47;;;20.50;66.70;;;;;;4988190;28;20168;-90
2022/06/17 00:35:20;;;;;;;2.47;2.28;;;20.60;66.70;;;;;;4972320;28;20183;-90
2022/06/17 00:37:48;;;;;;;2.50;2.30;;;20.50;66.60;;;;;;4989226;28;20178;-90
2022/06/17 00:40:22;;;;;;;2.25;2.05;;;20.50;66.70;;;;;;4988430;28;20592;-89
2022/06/17 00:42:48;;;;;;;2.55;2.35;;;20.40;66.60;;;;;;4987707;28;20258;-90
2022/06/17 00:45:22;;;;;;;2.50;2.30;;;20.50;66.70;;;;;;4989099;28;20203;-91
2022/06/17 00:48:02;;;;;;;2.53;2.33;;;20.50;66.70;;;;;;4989023;28;20160;-90
2022/06/17 00:50:50;;;;;;;2.50;2.30;;;20.50;66.70;;;;;;5005042;28;20167;-90
2022/06/17 00:53:20;;;;;;;2.83;2.58;;;20.50;66.70;;;;;;4977763;28;20194;-89
2022/06/17 00:55:57;;;;;;;2.20;2.00;;;20.50;66.60;;;;;;4991099;28;20167;-91
2022/06/17 00:58:31;;;;;;;2.60;2.40;;;20.50;66.70;;;;;;4991799;28;20205;-90
2022/06/17 01:00:59;;;;;;;2.50;2.30;;;20.50;66.70;;;;;;4975015;28;20183;-91
2022/06/17 01:03:26;;;;;;;2.40;2.20;;;20.50;66.70;;;;;;4992364;28;20167;-88
2022/06/17 01:05:56;;;;;;;2.20;2.00;;;20.50;66.70;;;;;;4996580;28;20199;-90
2022/06/17 01:11:11;;;;;;;2.40;2.20;;;20.40;66.70;;;;;;5018339;28;20179;-89
2022/06/17 01:13:38;;;;;;;2.47;2.28;;;20.50;66.60;;;;;;4985243;28;20155;-90
2022/06/17 01:16:04;;;;;;;2.42;2.22;;;20.50;66.70;;;;;;4998259;28;20618;-90
2022/06/17 01:18:42;;;;;;;2.33;2.13;;;20.50;66.70;;;;;;4998292;28;20187;-90
2022/06/17 01:21:18;;;;;;;2.47;2.28;;;20.50;66.70;;;;;;5011222;28;20167;-90
2022/06/17 01:23:51;;;;;;;2.35;2.15;;;20.50;66.70;;;;;;5003370;28;20163;-90
2022/06/17 01:26:18;;;;;;;2.50;2.30;;;20.50;66.60;;;;;;4987648;28;20160;-89
2022/06/17 01:28:44;;;;;;;2.17;2.00;;;20.50;66.60;;;;;;4968375;28;20362;-91
2022/06/17 01:31:11;;;;;;;2.40;2.20;;;20.50;66.60;;;;;;4984436;28;20212;-90
2022/06/17 01:33:38;;;;;;;2.28;2.08;;;20.50;66.70;;;;;;4984948;28;20168;-90
2022/06/17 01:36:19;;;;;;;2.42;2.22;;;20.40;66.60;;;;;;4984926;28;20164;-91
2022/06/17 01:38:46;;;;;;;2.40;2.20;;;20.50;66.70;;;;;;5001272;28;20168;-91
2022/06/17 01:41:15;;;;;;;2.13;2.03;;;20.50;66.70;;;;;;4984071;28;20622;-91
2022/06/17 01:43:52;;;;;;;2.60;2.40;;;20.40;66.60;;;;;;5001008;28;20203;-89
2022/06/17 01:46:31;;;;;;;2.75;2.38;;;20.40;66.70;;;;;;4985047;28;20226;-90
2022/06/17 01:49:05;;;;;;;2.50;2.30;;;20.40;66.70;;;;;;5001074;28;20155;-91
2022/06/17 01:51:32;;;;;;;2.50;2.30;;;20.40;66.80;;;;;;5001385;28;20224;-91
2022/06/17 01:54:04;;;;;;;2.35;2.15;;;20.40;66.70;;;;;;4984920;28;20179;-90
2022/06/17 01:56:34;;;;;;;2.50;2.30;;;20.40;66.80;;;;;;4969207;28;20175;-89
2022/06/17 01:59:05;;;;;;;2.47;2.28;;;20.30;66.70;;;;;;4985128;28;20203;-91
2022/06/17 02:01:36;;;;;;;2.60;2.40;;;20.40;66.90;;;;;;4984114;28;20684;-90
2022/06/17 02:04:07;;;;;;;2.30;2.10;;;20.40;66.80;;;;;;4983855;28;20207;-90
2022/06/17 02:06:50;;;;;;;2.65;2.45;;;20.40;66.80;;;;;;4985403;28;20168;-90
2022/06/17 02:09:16;;;;;;;2.25;2.08;;;20.40;66.90;;;;;;5001204;28;20175;-90
2022/06/17 02:11:43;;;;;;;2.33;2.13;;;20.40;66.80;;;;;;4984140;28;20164;-91
2022/06/17 02:14:11;;;;;;;2.60;2.40;;;20.40;66.90;;;;;;4969536;28;20191;-90
2022/06/17 02:16:45;;;;;;;2.60;2.40;;;20.40;66.90;;;;;;4984336;28;20236;-90
2022/06/17 02:19:13;;;;;;;2.60;2.40;;;20.40;66.90;;;;;;4984379;28;20175;-90
2022/06/17 02:21:46;;;;;;;2.72;2.28;;;20.40;66.90;;;;;;4984442;28;20190;-90
2022/06/17 02:24:15;;;;;;;2.55;2.35;;;20.30;66.90;;;;;;4984277;28;20658;-90
2022/06/17 02:26:40;;;;;;;2.47;2.28;;;20.40;66.90;;;;;;4984370;28;20206;-90
2022/06/17 02:29:08;;;;;;;2.60;2.40;;;20.40;66.80;;;;;;4968226;28;20215;-91
2022/06/17 02:31:34;;;;;;;2.42;2.22;;;20.40;66.90;;;;;;4984498;28;20163;-90
2022/06/17 02:34:04;;;;;;;2.75;2.55;;;20.40;66.90;;;;;;4984881;28;20203;-90
2022/06/17 02:36:33;;;;;;;2.25;2.05;;;20.40;66.80;;;;;;5000201;28;20183;-90
2022/06/17 02:39:04;;;;;;;2.60;2.40;;;20.40;66.90;;;;;;4985189;28;20184;-90
2022/06/17 02:41:30;;;;;;;2.40;2.20;;;20.40;66.70;;;;;;5000193;28;20173;-92
2022/06/17 02:44:05;;;;;;;2.42;2.22;;;20.40;66.90;;;;;;4983570;28;20203;-90
2022/06/17 02:46:33;;;;;;;2.78;2.03;;;20.40;66.90;;;;;;4985178;28;20222;-90
2022/06/17 02:49:02;;;;;;;2.45;2.25;;;20.40;66.90;;;;;;4984016;28;20638;-90
2022/06/17 02:51:29;;;;;;;2.42;2.20;;;20.40;66.80;;;;;;4985006;28;20172;-90
2022/06/17 02:53:56;;;;;;;2.40;2.20;;;20.40;66.90;;;;;;4984643;28;20160;-89
2022/06/17 02:56:28;;;;;;;2.60;2.40;;;20.40;66.90;;;;;;4984251;28;20231;-89
2022/06/17 02:59:11;;;;;;;2.40;2.20;;;20.40;67.00;;;;;;5000572;28;20176;-90
2022/06/17 03:01:39;;;;;;;2.63;2.42;;;20.30;66.90;;;;;;5000822;28;20258;-90
2022/06/17 03:04:11;;;;;;;2.47;2.28;;;20.30;66.80;;;;;;4984964;28;20188;-91
2022/06/17 03:06:40;;;;;;;2.72;2.33;;;20.30;66.90;;;;;;4985186;28;20164;-90
2022/06/17 03:09:15;;;;;;;2.55;2.35;;;20.30;66.90;;;;;;4984631;28;20164;-90
2022/06/17 03:11:50;;;;;;;2.50;2.30;;;20.30;67.00;;;;;;4984873;28;20174;-90
2022/06/17 03:14:20;;;;;;;2.47;2.28;;;20.30;66.90;;;;;;4985049;28;20179;-90
2022/06/17 03:16:52;;;;;;;2.60;2.40;;;20.30;66.90;;;;;;4984872;28;20164;-89
2022/06/17 03:19:18;;;;;;;2.30;2.10;;;20.30;67.00;;;;;;5001340;28;20196;-91
2022/06/17 03:21:44;;;;;;;2.30;2.10;;;20.30;67.00;;;;;;4984376;28;20483;-90
2022/06/17 03:24:17;;;;;;;2.60;2.25;;;20.30;67.00;;;;;;4988354;28;20195;-91
2022/06/17 03:26:54;;;;;;;2.50;2.30;;;20.30;67.00;;;;;;4988913;28;20170;-90
2022/06/17 03:29:21;;;;;;;2.53;2.33;;;20.30;66.90;;;;;;4989571;28;20724;-90
2022/06/17 03:31:52;;;;;;;3.28;2.30;;;20.30;66.90;;;;;;4987797;28;20200;-90
2022/06/17 03:34:29;;;;;;;2.53;2.33;;;20.30;67.00;;;;;;4988412;28;20174;-90
2022/06/17 03:37:01;;;;;;;2.40;2.20;;;20.30;67.00;;;;;;4988706;28;20203;-91
2022/06/17 03:39:38;;;;;;;2.40;2.20;;;20.30;67.00;;;;;;4973064;28;20215;-89
2022/06/17 03:42:14;;;;;;;2.50;2.30;;;20.30;66.90;;;;;;5004423;28;20163;-90
2022/06/17 03:44:48;;;;;;;2.40;2.20;;;20.30;67.00;;;;;;4988905;28;20250;-90
2022/06/17 03:47:40;;;;;;;2.28;2.08;;;20.30;67.00;;;;;;4988182;28;20168;-90
2022/06/17 03:50:10;;;;;;;2.28;2.08;;;20.30;67.00;;;;;;4983532;28;20184;-90
2022/06/17 03:52:40;;;;;;;2.50;2.30;;;20.30;67.10;;;;;;4968797;28;20208;-89
2022/06/17 03:55:12;;;;;;;2.45;2.25;;;20.40;67.00;;;;;;4968436;28;20192;-90
2022/06/17 03:57:38;;;;;;;1.98;1.85;;;20.30;67.00;;;;;;4968124;28;20252;-90
2022/06/17 04:00:04;;;;;;;2.00;1.90;;;20.30;66.90;;;;;;4967927;28;20215;-90
2022/06/17 04:02:32;;;;;;;2.42;2.22;;;20.30;66.90;;;;;;4952244;28;20184;-90
2022/06/17 04:05:00;;;;;;;2.45;2.25;;;20.30;67.00;;;;;;4952425;28;20219;-91
2022/06/17 04:07:26;;;;;;;2.47;2.28;;;20.30;66.90;;;;;;4951885;28;20169;-90
2022/06/17 04:09:53;;;;;;;2.00;1.90;;;20.30;67.00;;;;;;4967876;28;20196;-91
2022/06/17 04:12:24;;;;;;;2.47;2.28;;;20.30;66.90;;;;;;4967837;28;20175;-90
2022/06/17 04:15:03;;;;;;;2.40;2.20;;;20.30;67.00;;;;;;4967831;28;20191;-90
2022/06/17 04:17:36;;;;;;;2.13;2.00;;;20.30;67.00;;;;;;4969429;28;20180;-90
2022/06/17 04:20:22;;;;;;;2.55;2.35;;;20.30;66.90;;;;;;4969660;28;20245;-91
2022/06/17 04:22:49;;;;;;;2.20;2.00;;;20.30;66.90;;;;;;4990826;28;20179;-91
2022/06/17 04:25:33;;;;;;;2.40;2.20;;;20.30;67.00;;;;;;4988143;28;20196;-90
2022/06/17 04:28:03;;;;;;;2.53;2.33;;;20.20;66.90;;;;;;4990022;28;20233;-90
2022/06/17 04:30:31;;;;;;;1.98;1.88;;;20.30;67.00;;;;;;4987964;28;20231;-90
2022/06/17 04:33:01;;;;;;;2.20;2.00;;;20.30;66.90;;;;;;4988658;28;20247;-89
2022/06/17 04:35:30;;;;;;;2.17;1.98;;;20.30;66.90;;;;;;4988061;28;20175;-90
2022/06/17 04:37:57;;;;;;;2.40;2.20;;;20.20;66.90;;;;;;5005165;28;20196;-90
2022/06/17 04:40:35;;;;;;;2.33;2.20;;;20.20;66.90;;;;;;4988290;28;20175;-90
2022/06/17 04:43:05;;;;;;;2.38;2.17;;;20.20;67.00;;;;;;4989527;28;20159;-90
2022/06/17 04:45:32;;;;;;;2.30;2.10;;;20.20;67.00;;;;;;4967675;28;20224;-90
2022/06/17 04:48:03;;;;;;;2.40;2.20;;;20.20;66.90;;;;;;4968357;28;20300;-89
2022/06/17 04:50:31;;;;;;;2.25;2.05;;;20.30;67.00;;;;;;4968785;28;20304;-90
2022/06/17 04:52:58;;;;;;;2.20;2.00;;;20.30;66.90;;;;;;4968697;28;20172;-90
2022/06/17 04:55:32;;;;;;;2.33;2.13;;;20.30;66.60;;;;;;4968942;28;20619;-91
2022/06/17 04:58:02;;;;;;;2.10;1.90;;;20.30;66.90;;;;;;4951069;29;20276;-90
2022/06/17 05:00:28;;;;;;;2.20;1.92;;;20.30;66.80;;;;;;4965481;29;20190;-89
2022/06/17 05:02:57;;;;;;;2.00;1.80;;;20.30;66.60;;;;;;4966110;29;20189;-89
2022/06/17 05:05:38;;;;;;;2.10;1.90;;;20.30;66.70;;;;;;4924393;29;20219;-91
2022/06/17 05:08:32;;;;;;;2.20;1.42;;;20.30;66.70;;;;;;4879413;29;20195;-90
2022/06/17 05:11:08;;;;;;;1.63;1.52;;;20.40;66.70;;;;;;4841539;29;20196;-90
2022/06/17 05:14:04;;;;;;;1.80;1.70;;;20.30;66.90;;;;;;4823733;29;20191;-90
2022/06/17 05:16:50;;;;;;;1.27;1.17;;;20.20;67.10;;;;;;4838249;29;20198;-90
2022/06/17 05:19:30;;;;;;;1.67;1.55;;;20.40;66.60;;;;;;4823755;29;20217;-90
2022/06/17 05:21:58;;;;;;;1.92;1.83;;;20.40;66.50;;;;;;4785370;30;20279;-90
2022/06/17 05:24:28;;;;;;;1.85;1.75;;;20.40;66.50;;;;;;4794919;30;20219;-90
2022/06/17 05:27:00;;;;;;;1.98;1.88;;;20.40;66.60;;;;;;4791079;30;20191;-91
2022/06/17 05:29:32;;;;;;;1.60;1.50;;;20.30;66.60;;;;;;4735086;30;20264;-91
2022/06/17 05:31:58;;;;;;;1.90;1.80;;;20.40;66.50;;;;;;4752266;30;20719;-92
2022/06/17 05:34:30;;;;;;;1.70;1.60;;;20.40;66.50;;;;;;4767287;30;20268;-91
2022/06/17 05:37:03;;;;;;;1.92;1.80;;;20.40;66.10;;;;;;4777463;30;20204;-91
2022/06/17 05:39:38;;;;;;;1.83;1.73;;;20.50;66.10;;;;;;4784679;30;20199;-91
2022/06/17 05:42:06;;;;;;;1.98;1.88;;;20.40;66.10;;;;;;4814976;29;20194;-91
2022/06/17 05:44:33;;;;;;;1.95;1.85;;;20.50;66.10;;;;;;4868645;29;20208;-91
2022/06/17 05:47:01;;;;;;;2.10;1.90;;;20.50;65.80;;;;;;4879027;29;20189;-91
2022/06/17 05:49:39;;;;;;;1.73;1.63;;;20.60;65.80;;;;;;4875363;29;20190;-90
2022/06/17 05:52:21;;;;;;;1.90;1.80;;;20.60;65.80;;;;;;4859915;29;20233;-91
2022/06/17 05:54:49;;;;;;;1.95;1.85;;;20.50;65.80;;;;;;4872867;29;20263;-91
2022/06/17 05:57:20;;;;;;;1.70;1.60;;;20.50;65.90;;;;;;4891924;29;20193;-92
2022/06/17 05:59:52;;;;;;;2.30;1.90;;;20.50;65.80;;;;;;4913262;29;20279;-92
2022/06/17 06:02:25;;;;;;;1.80;1.70;;;20.50;65.70;;;;;;4906056;29;20190;-92
2022/06/17 06:04:56;;;;;;;1.63;1.52;;;20.50;65.90;;;;;;4831945;29;20217;-92
2022/06/17 06:08:10;;;;;;;;;;;;;;;;;;;;;
2022/06/17 06:11:28;;;;;;;1.98;1.80;;;20.60;65.60;;;;;;4746624;30;20275;-93
2022/06/17 06:18:24;;;;;;;1.77;1.67;;;20.60;65.50;;;;;;4689950;30;20194;-93
2022/06/17 06:21:32;;;;;;;;;;;;;;;;;;;;;
2022/06/17 07:04:02;;;;;;;1.45;1.35;;;21.00;64.20;;;;;;5457778;23;17841040;-91
2022/06/17 07:06:40;;;;;;;1.60;1.50;;;20.90;64.30;;;;;;6179716;23;20216;-90
2022/06/17 07:09:13;;;;;;;1.60;1.50;;;20.90;64.20;;;;;;6128059;23;20158;-91
2022/06/17 07:11:48;;;;;;;1.73;1.50;;;20.90;64.30;;;;;;6126297;23;20154;-92
2022/06/17 07:14:25;;;;;;;1.95;1.85;;;20.90;64.50;;;;;;6114416;23;20151;-91
2022/06/17 07:16:53;;;;;;;1.50;1.40;;;20.90;64.50;;;;;;6113581;23;20182;-91
2022/06/17 07:19:20;;;;;;;2.03;1.33;;;20.90;64.40;;;;;;6214533;23;20181;-90
2022/06/17 07:21:48;;;;;;;1.67;1.38;;;20.90;64.50;;;;;;6175308;23;20157;-90
2022/06/17 07:24:15;;;;;;;1.63;1.40;;;20.90;64.40;;;;;;6175545;23;20150;-91
2022/06/17 07:26:46;;;;;;;3.70;1.40;;;20.90;64.30;;;;;;6175930;23;20277;-90
2022/06/17 07:29:20;;;;;;;2.35;1.50;;;20.90;64.60;;;;;;6179518;23;20150;-90
2022/06/17 07:31:49;;;;;;;1.50;1.40;;;20.90;64.60;;;;;;6149109;23;20153;-91
2022/06/17 07:34:41;;;;;;;4.80;1.60;;;20.90;64.60;;;;;;6144898;23;20147;-90
2022/06/17 07:40:09;;;;;;;1.60;1.50;;;20.90;64.80;;;;;;6113888;23;20610;-90
2022/06/17 07:49:27;;;;;;;1.63;1.52;;;20.90;64.60;;;;;;6171384;23;20151;-89
2022/06/17 07:52:03;;;;;;;2.38;1.33;;;20.90;64.30;;;;;;6168918;23;20225;-90
2022/06/17 07:54:35;;;;;;;1.88;1.10;;;20.90;64.40;;;;;;6202726;23;20152;-90
2022/06/17 07:57:03;;;;;;;2.00;1.38;;;20.90;64.30;;;;;;6177188;23;20153;-90
2022/06/17 07:59:50;;;;;;;2.72;1.45;;;21.00;64.10;;;;;;6123810;23;20162;-89
2022/06/17 08:02:19;;;;;;;2.03;1.50;;;21.10;63.80;;;;;;6088053;23;20198;-92
2022/06/17 08:04:48;;;;;;;2.72;1.40;;;21.10;63.70;;;;;;6100020;23;20158;-90
2022/06/17 08:07:37;;;;;;;1.50;1.40;;;21.20;63.40;;;;;;6093094;23;20496;-92
2022/06/17 08:10:15;;;;;;;1.27;1.17;;;21.20;63.20;;;;;;5971208;23;20208;-89
2022/06/17 08:12:43;;;;;;;1.90;1.42;;;21.20;63.20;;;;;;6041993;23;20616;-90
2022/06/17 08:15:15;;;;;;;1.67;1.58;;;21.20;63.10;;;;;;6040925;23;20202;-91
2022/06/17 08:17:48;;;;;;;1.50;1.40;;;21.20;62.90;;;;;;6042795;23;20185;-91
2022/06/17 08:20:22;;;;;;;1.55;1.45;;;21.20;63.00;;;;;;6041359;23;20669;-91
2022/06/17 08:23:11;;;;;;;2.03;1.38;;;21.10;63.30;;;;;;6040434;23;20240;-91
2022/06/17 08:25:50;;;;;;;1.60;1.50;;;21.20;63.20;;;;;;6013150;23;20241;-91
2022/06/17 08:28:32;;;;;;;1.70;1.10;;;21.10;63.30;;;;;;5960554;23;20219;-92
2022/06/17 08:31:26;;;;;;;1.38;1.27;;;21.00;63.30;;;;;;5988237;23;20154;-91
2022/06/17 08:33:55;;;;;;;1.40;1.30;;;21.10;63.30;;;;;;5933679;23;20156;-92
2022/06/17 08:36:31;;;;;;;1.50;1.40;;;21.10;63.10;;;;;;5954846;23;20172;-92
2022/06/17 08:39:07;;;;;;;2.45;1.20;;;21.10;63.10;;;;;;5975674;23;20182;-92
2022/06/17 08:41:57;;;;;;;1.30;1.20;;;21.10;63.20;;;;;;6095749;23;20254;-92
2022/06/17 08:44:51;;;;;;;1.60;1.33;;;21.00;63.30;;;;;;6046220;23;20158;-91
2022/06/17 08:47:25;;;;;;;1.42;1.23;;;21.00;63.40;;;;;;6047119;23;20237;-91
2022/06/17 08:50:26;;;;;;;1.30;1.17;;;21.00;63.40;;;;;;6078629;23;20164;-90
2022/06/17 08:53:33;;;;;;;1.40;1.30;;;21.00;63.40;;;;;;6077985;23;20154;-91
2022/06/17 08:56:25;;;;;;;1.30;1.20;;;21.10;63.30;;;;;;6055572;23;20173;-91
2022/06/17 08:58:59;;;;;;;1.40;1.30;;;21.10;63.30;;;;;;6028190;23;20153;-90
2022/06/17 09:01:33;;;;;;;1.05;1.05;;;21.10;63.20;;;;;;6096976;23;20172;-90
2022/06/17 09:04:09;;;;;;;1.40;1.25;;;21.10;62.80;;;;;;6072275;23;20539;-89
2022/06/17 09:06:51;;;;;;;1.27;1.13;;;21.10;62.80;;;;;;6073832;23;20251;-91
2022/06/17 09:09:55;;;;;;;1.40;1.27;;;21.20;62.90;;;;;;6075595;23;20234;-90
2022/06/17 09:12:32;;;;;;;2.80;1.20;;;21.20;63.30;;;;;;6075422;23;20156;-89
2022/06/17 09:15:12;;;;;;;1.42;1.33;;;21.20;62.90;;;;;;6093453;23;20151;-91
2022/06/17 09:17:59;;;;;;;3.88;1.23;;;21.00;63.10;;;;;;6188486;23;20162;-90
2022/06/17 09:20:39;;;;;;;1.30;1.20;;;21.00;63.20;;;;;;6225438;23;20213;-90
2022/06/17 09:23:27;;;;;;;2.65;1.27;;;21.00;63.00;;;;;;6226796;23;20150;-90
2022/06/17 09:25:54;;;;;;;1.23;1.13;;;21.00;62.90;;;;;;6170251;23;20174;-91
2022/06/17 09:28:27;;;;;;;1.40;1.30;;;21.10;62.80;;;;;;6137560;23;20638;-91
2022/06/17 09:31:31;;;;;;;1.23;1.13;;;21.20;62.50;;;;;;6144823;23;20151;-91
2022/06/17 09:34:38;;;;;;;1.35;1.25;;;21.00;62.90;;;;;;6137024;23;20190;-92
2022/06/17 09:37:28;;;;;;;2.72;1.35;;;21.10;62.50;;;;;;6053179;23;20177;-91
2022/06/17 09:40:18;;;;;;;1.40;1.30;;;21.10;62.40;;;;;;6021746;23;20151;-91
2022/06/17 09:42:49;;;;;;;1.10;1.10;;;21.20;62.30;;;;;;5965066;24;20247;-92
2022/06/17 09:45:33;;;;;;;1.10;1.00;;;21.20;62.40;;;;;;5911689;24;20185;-93
2022/06/17 09:48:04;;;;;;;1.30;1.20;;;21.20;62.40;;;;;;5901372;24;20154;-91
2022/06/17 09:51:37;;;;;;;1.38;1.27;;;21.20;62.10;;;;;;5906152;24;20215;-91
2022/06/17 09:54:29;;;;;;;;;;;;;;;;;;;;;
2022/06/17 09:57:28;;;;;;;1.35;1.25;;;21.30;61.80;;;;;;5882358;24;20181;-91
2022/06/17 10:00:24;;;;;;;2.10;1.08;;;21.20;62.00;;;;;;5881758;24;20169;-90
2022/06/17 10:03:49;;;;;;;1.00;1.00;;;21.20;62.00;;;;;;5870316;24;20193;-91
2022/06/17 10:07:17;;;;;;;;;;;;;;;;;;;;;
2022/06/17 10:10:31;;;;;;;1.75;1.00;;;21.40;61.70;;;;;;5912433;24;20194;-91
2022/06/17 10:13:57;;;;;;;1.25;1.15;;;21.40;60.80;;;;;;5944923;24;20655;-91
2022/06/17 10:19:43;;;;;;;1.20;1.10;;;21.50;60.70;;;;;;6001263;23;20211;-91
2022/06/17 10:22:44;;;;;;;1.10;1.00;;;21.50;60.90;;;;;;6006587;23;20483;-91
2022/06/17 10:25:40;;;;;;;1.13;1.10;;;21.50;60.80;;;;;;6026632;23;20159;-91
2022/06/17 10:28:21;;;;;;;1.40;1.30;;;21.50;60.50;;;;;;6038866;23;20163;-92
2022/06/17 10:30:58;;;;;;;3.40;1.20;;;21.50;60.50;;;;;;6069102;23;20157;-92
2022/06/17 10:33:24;;;;;;;1.90;1.30;;;21.50;60.60;;;;;;6072130;23;20152;-91
2022/06/17 10:35:51;;;;;;;1.55;1.15;;;21.50;60.20;;;;;;6072615;23;20747;-90
2022/06/17 10:38:28;;;;;;;1.45;1.20;;;21.60;60.00;;;;;;6125235;23;20488;-90
2022/06/17 10:40:54;;;;;;;1.73;1.00;;;21.60;59.90;;;;;;6136967;23;20162;-90
2022/06/17 10:43:26;;;;;;;0.93;0.93;;;21.60;59.80;;;;;;6160021;23;20162;-91
2022/06/17 10:46:00;;;;;;;1.80;1.10;;;21.60;59.90;;;;;;6175475;23;20216;-92
2022/06/17 10:48:37;;;;;;;1.30;1.20;;;21.60;59.80;;;;;;6199737;23;20702;-90
2022/06/17 10:51:14;;;;;;;;;;;;;;;;;;;;;
2022/06/17 10:53:46;;;;;;;1.30;1.20;;;21.60;60.00;;;;;;6197374;23;20177;-92
2022/06/17 10:56:24;;;;;;;1.13;1.02;;;21.60;59.70;;;;;;6160529;23;20157;-92
2022/06/17 10:59:31;;;;;;;3.08;1.02;;;21.60;59.60;;;;;;6225288;23;20207;-91
2022/06/17 11:02:00;;;;;;;3.72;1.20;;;21.70;59.50;;;;;;6103030;23;20932;-91
2022/06/17 11:04:28;;;;;;;1.17;1.00;;;21.60;59.70;;;;;;6110961;23;20187;-92
2022/06/17 11:07:16;;;;;;;1.35;1.00;;;21.70;60.30;;;;;;6066113;23;20193;-91
2022/06/17 11:09:55;;;;;;;3.38;0.98;;;21.70;59.30;;;;;;6105884;23;20152;-92
2022/06/17 11:12:37;;;;;;;1.23;1.17;;;21.70;59.30;;;;;;6157264;23;20678;-92
2022/06/17 11:15:26;;;;;;;2.42;1.30;;;21.70;59.40;;;;;;6103500;23;20656;-91
2022/06/17 11:17:55;;;;;;;3.35;1.10;;;21.70;59.30;;;;;;6053258;23;20183;-90
2022/06/17 11:20:27;;;;;;;0.88;0.88;;;21.70;59.10;;;;;;6076513;23;20157;-92
2022/06/17 11:22:55;;;;;;;1.23;1.00;;;21.80;58.80;;;;;;6099800;23;20149;-91
2022/06/17 11:25:28;;;;;;;3.72;1.25;;;21.80;58.70;;;;;;6076487;23;20192;-90
2022/06/17 11:28:11;;;;;;;1.10;1.00;;;21.80;59.00;;;;;;6076088;23;20161;-91
2022/06/17 11:30:57;;;;;;;1.27;1.10;;;21.70;59.20;;;;;;6069334;23;20153;-92
2022/06/17 11:33:28;;;;;;;2.50;1.00;;;21.80;59.10;;;;;;6074170;23;20183;-90
2022/06/17 11:36:09;;;;;;;3.15;1.20;;;21.80;58.90;;;;;;6130113;23;20156;-93
2022/06/17 11:38:42;;;;;;;1.42;1.30;;;21.70;59.10;;;;;;6127562;23;20152;-90
2022/06/17 11:41:37;;;;;;;1.88;0.90;;;21.80;59.10;;;;;;6071100;23;20652;-92
2022/06/17 11:44:07;;;;;;;1.55;1.10;;;21.70;58.70;;;;;;6042129;23;20154;-92
2022/06/17 11:46:55;;;;;;;1.60;0.93;;;21.70;59.10;;;;;;6192004;23;20192;-91
2022/06/17 11:49:42;;;;;;;1.52;1.00;;;21.70;59.10;;;;;;6203348;23;20150;-90
2022/06/17 11:52:48;;;;;;;;;;;;;;;;;;;;;
2022/06/17 11:55:50;;;;;;;;;;;;;;;;;;;;;
2022/06/17 11:59:00;;;;;;;5.60;1.45;;;21.70;58.80;;;;;;6167883;23;20186;-90
2022/06/17 12:12:58;;;;;;;;;;;;;;;;;;;;;
2022/06/17 12:15:42;;;;;;;;;;;;;;;;;;;;;
2022/06/17 12:18:35;;;;;;;11.65;2.05;;;21.70;58.60;;;;;;5994880;24;20530;-91
2022/06/17 12:21:21;;;;;;;9.05;1.80;;;21.80;59.00;;;;;;6043392;23;20579;-90
2022/06/17 12:24:23;;;;;;;5.80;1.70;;;21.70;58.40;;;;;;6019215;23;20176;-91
2022/06/17 12:27:15;;;;;;;10.68;1.55;;;21.70;58.60;;;;;;6018391;23;20294;-91
2022/06/17 12:30:06;;;;;;;3.65;1.15;;;21.70;58.70;;;;;;6020742;23;20245;-91
2022/06/17 12:32:43;;;;;;;9.38;1.63;;;21.70;58.30;;;;;;5978804;24;20152;-91
2022/06/17 12:35:45;;;;;;;;;;;;;;;;;;;;;
2022/06/17 12:38:42;;;;;;;7.30;1.30;;;21.70;58.00;;;;;;5934113;24;20184;-92
